sensor_id;sensor_type;location;lat;lon;timestamp;pressure;altitude;pressure_sealevel;temperature;humidity
18749;BME280;9503;53.560;10.246;2023-04-06T00:02:22;101340.84;;;5.20;75.85
18749;BME280;9503;53.560;10.246;2023-04-06T00:04:48;101348.13;;;5.16;76.39
18749;BME280;9503;53.560;10.246;2023-04-06T00:07:15;101333.97;;;5.19;76.55
18749;BME280;9503;53.560;10.246;2023-04-06T00:09:42;101337.28;;;5.18;76.13
18749;BME280;9503;53.560;10.246;2023-04-06T00:12:09;101337.28;;;5.18;76.47
18749;BME280;9503;53.560;10.246;2023-04-06T00:14:35;101341.59;;;5.19;75.87
18749;BME280;9503;53.560;10.246;2023-04-06T00:17:03;101337.06;;;5.15;76.23
18749;BME280;9503;53.560;10.246;2023-04-06T00:19:30;101335.28;;;5.14;75.77
18749;BME280;9503;53.560;10.246;2023-04-06T00:21:57;101326.63;;;5.12;75.74
18749;BME280;9503;53.560;10.246;2023-04-06T00:24:24;101321.56;;;5.12;75.65
18749;BME280;9503;53.560;10.246;2023-04-06T00:26:51;101317.63;;;5.06;75.46
18749;BME280;9503;53.560;10.246;2023-04-06T00:29:18;101317.28;;;5.01;76.24
18749;BME280;9503;53.560;10.246;2023-04-06T00:31:45;101321.00;;;4.94;75.41
18749;BME280;9503;53.560;10.246;2023-04-06T00:34:13;101323.28;;;4.91;75.35
18749;BME280;9503;53.560;10.246;2023-04-06T00:36:41;101319.91;;;5.13;75.26
18749;BME280;9503;53.560;10.246;2023-04-06T00:39:07;101318.34;;;4.93;74.84
18749;BME280;9503;53.560;10.246;2023-04-06T00:41:34;101318.97;;;4.90;74.90
18749;BME280;9503;53.560;10.246;2023-04-06T00:44:01;101312.88;;;4.88;75.25
18749;BME280;9503;53.560;10.246;2023-04-06T00:46:28;101309.22;;;4.75;75.40
18749;BME280;9503;53.560;10.246;2023-04-06T00:48:55;101312.91;;;4.78;75.49
18749;BME280;9503;53.560;10.246;2023-04-06T00:51:23;101305.16;;;4.77;74.79
18749;BME280;9503;53.560;10.246;2023-04-06T00:53:50;101310.88;;;4.74;75.10
18749;BME280;9503;53.560;10.246;2023-04-06T00:56:17;101309.00;;;4.71;75.73
18749;BME280;9503;53.560;10.246;2023-04-06T00:58:44;101310.13;;;4.75;75.92
18749;BME280;9503;53.560;10.246;2023-04-06T01:01:10;101304.81;;;4.72;75.18
18749;BME280;9503;53.560;10.246;2023-04-06T01:03:37;101307.56;;;4.75;75.87
18749;BME280;9503;53.560;10.246;2023-04-06T01:06:04;101310.09;;;4.85;76.55
18749;BME280;9503;53.560;10.246;2023-04-06T01:08:32;101300.06;;;4.87;76.52
18749;BME280;9503;53.560;10.246;2023-04-06T01:10:59;101294.88;;;4.85;76.91
18749;BME280;9503;53.560;10.246;2023-04-06T01:13:27;101296.53;;;4.85;77.73
18749;BME280;9503;53.560;10.246;2023-04-06T01:15:54;101297.41;;;4.85;76.93
18749;BME280;9503;53.560;10.246;2023-04-06T01:18:25;101296.63;;;4.86;76.44
18749;BME280;9503;53.560;10.246;2023-04-06T01:20:52;101286.19;;;4.93;76.45
18749;BME280;9503;53.560;10.246;2023-04-06T01:23:20;101281.94;;;5.04;76.00
18749;BME280;9503;53.560;10.246;2023-04-06T01:25:47;101281.88;;;4.92;76.08
18749;BME280;9503;53.560;10.246;2023-04-06T01:28:14;101284.97;;;4.78;76.13
18749;BME280;9503;53.560;10.246;2023-04-06T01:30:40;101286.19;;;4.51;76.68
18749;BME280;9503;53.560;10.246;2023-04-06T01:33:07;101288.06;;;4.64;76.66
18749;BME280;9503;53.560;10.246;2023-04-06T01:35:34;101279.47;;;4.84;76.03
18749;BME280;9503;53.560;10.246;2023-04-06T01:38:01;101283.44;;;4.80;75.81
18749;BME280;9503;53.560;10.246;2023-04-06T01:40:29;101282.44;;;4.78;75.68
18749;BME280;9503;53.560;10.246;2023-04-06T01:42:56;101285.59;;;4.76;74.88
18749;BME280;9503;53.560;10.246;2023-04-06T01:45:23;101279.78;;;4.66;75.07
18749;BME280;9503;53.560;10.246;2023-04-06T01:47:50;101277.75;;;4.62;74.75
18749;BME280;9503;53.560;10.246;2023-04-06T01:50:17;101279.56;;;4.53;75.36
18749;BME280;9503;53.560;10.246;2023-04-06T01:52:44;101274.47;;;4.53;75.44
18749;BME280;9503;53.560;10.246;2023-04-06T01:55:10;101266.38;;;4.57;75.62
18749;BME280;9503;53.560;10.246;2023-04-06T01:57:38;101267.53;;;4.51;76.07
18749;BME280;9503;53.560;10.246;2023-04-06T02:00:06;101265.78;;;4.29;76.05
18749;BME280;9503;53.560;10.246;2023-04-06T02:02:33;101263.75;;;4.25;76.49
18749;BME280;9503;53.560;10.246;2023-04-06T02:05:00;101263.47;;;4.32;77.91
18749;BME280;9503;53.560;10.246;2023-04-06T02:07:26;101262.59;;;4.32;76.78
18749;BME280;9503;53.560;10.246;2023-04-06T02:09:54;101268.56;;;4.32;77.05
18749;BME280;9503;53.560;10.246;2023-04-06T02:12:21;101265.59;;;4.58;77.92
18749;BME280;9503;53.560;10.246;2023-04-06T02:14:50;101257.31;;;4.61;76.25
18749;BME280;9503;53.560;10.246;2023-04-06T02:17:17;101258.41;;;4.42;76.75
18749;BME280;9503;53.560;10.246;2023-04-06T02:19:44;101256.75;;;4.33;78.19
18749;BME280;9503;53.560;10.246;2023-04-06T02:22:11;101253.22;;;4.31;78.46
18749;BME280;9503;53.560;10.246;2023-04-06T02:24:37;101259.69;;;4.27;77.43
18749;BME280;9503;53.560;10.246;2023-04-06T02:27:04;101260.97;;;4.22;77.87
18749;BME280;9503;53.560;10.246;2023-04-06T02:29:31;101250.44;;;4.28;78.89
18749;BME280;9503;53.560;10.246;2023-04-06T02:31:59;101254.16;;;4.53;77.96
18749;BME280;9503;53.560;10.246;2023-04-06T02:34:26;101247.44;;;4.64;77.88
18749;BME280;9503;53.560;10.246;2023-04-06T02:36:53;101247.78;;;4.68;77.94
18749;BME280;9503;53.560;10.246;2023-04-06T02:39:20;101247.66;;;4.67;77.66
18749;BME280;9503;53.560;10.246;2023-04-06T02:41:46;101252.13;;;4.59;77.66
18749;BME280;9503;53.560;10.246;2023-04-06T02:44:13;101257.09;;;4.58;77.11
18749;BME280;9503;53.560;10.246;2023-04-06T02:46:40;101261.41;;;4.59;77.16
18749;BME280;9503;53.560;10.246;2023-04-06T02:49:08;101259.25;;;4.53;77.47
18749;BME280;9503;53.560;10.246;2023-04-06T02:51:35;101260.91;;;4.53;76.88
18749;BME280;9503;53.560;10.246;2023-04-06T02:54:04;101257.09;;;4.48;76.78
18749;BME280;9503;53.560;10.246;2023-04-06T02:56:34;101261.16;;;4.46;77.74
18749;BME280;9503;53.560;10.246;2023-04-06T02:59:01;101256.09;;;4.46;77.47
18749;BME280;9503;53.560;10.246;2023-04-06T03:01:27;101260.41;;;4.47;76.82
18749;BME280;9503;53.560;10.246;2023-04-06T03:03:54;101259.28;;;4.43;77.60
18749;BME280;9503;53.560;10.246;2023-04-06T03:06:22;101257.75;;;4.45;77.42
18749;BME280;9503;53.560;10.246;2023-04-06T03:08:49;101258.63;;;4.46;77.67
18749;BME280;9503;53.560;10.246;2023-04-06T03:11:22;101255.97;;;4.44;78.33
18749;BME280;9503;53.560;10.246;2023-04-06T03:13:52;101260.41;;;4.47;78.00
18749;BME280;9503;53.560;10.246;2023-04-06T03:16:18;101262.94;;;4.47;77.96
18749;BME280;9503;53.560;10.246;2023-04-06T03:18:45;101261.47;;;4.18;78.79
18749;BME280;9503;53.560;10.246;2023-04-06T03:21:12;101259.84;;;3.98;80.33
18749;BME280;9503;53.560;10.246;2023-04-06T03:23:41;101267.06;;;4.04;80.53
18749;BME280;9503;53.560;10.246;2023-04-06T03:26:08;101267.56;;;4.00;80.54
18749;BME280;9503;53.560;10.246;2023-04-06T03:28:35;101266.16;;;4.03;80.75
18749;BME280;9503;53.560;10.246;2023-04-06T03:31:02;101262.50;;;4.00;80.11
18749;BME280;9503;53.560;10.246;2023-04-06T03:33:28;101266.81;;;4.01;80.49
18749;BME280;9503;53.560;10.246;2023-04-06T03:35:55;101264.28;;;4.01;80.72
18749;BME280;9503;53.560;10.246;2023-04-06T03:38:22;101257.69;;;3.93;81.47
18749;BME280;9503;53.560;10.246;2023-04-06T03:40:50;101258.31;;;4.00;81.12
18749;BME280;9503;53.560;10.246;2023-04-06T03:43:17;101260.34;;;4.14;80.25
18749;BME280;9503;53.560;10.246;2023-04-06T03:45:44;101269.06;;;4.18;79.89
18749;BME280;9503;53.560;10.246;2023-04-06T03:48:11;101263.25;;;4.29;79.59
18749;BME280;9503;53.560;10.246;2023-04-06T03:50:37;101267.56;;;4.10;79.64
18749;BME280;9503;53.560;10.246;2023-04-06T03:53:04;101265.03;;;4.00;80.07
18749;BME280;9503;53.560;10.246;2023-04-06T03:55:31;101266.31;;;4.05;80.47
18749;BME280;9503;53.560;10.246;2023-04-06T03:57:59;101262.63;;;4.22;80.02
18749;BME280;9503;53.560;10.246;2023-04-06T04:00:26;101265.28;;;4.13;79.70
18749;BME280;9503;53.560;10.246;2023-04-06T04:02:53;101267.56;;;4.10;80.01
18749;BME280;9503;53.560;10.246;2023-04-06T04:05:20;101272.78;;;4.01;80.04
18749;BME280;9503;53.560;10.246;2023-04-06T04:07:50;101267.81;;;4.03;80.54
18749;BME280;9503;53.560;10.246;2023-04-06T04:10:17;101271.66;;;3.98;80.57
18749;BME280;9503;53.560;10.246;2023-04-06T04:12:43;101268.84;;;3.95;81.44
18749;BME280;9503;53.560;10.246;2023-04-06T04:15:12;101273.91;;;3.95;81.61
18749;BME280;9503;53.560;10.246;2023-04-06T04:17:38;101269.88;;;3.97;80.72
18749;BME280;9503;53.560;10.246;2023-04-06T04:20:06;101264.41;;;4.02;81.33
18749;BME280;9503;53.560;10.246;2023-04-06T04:22:34;101274.19;;;3.98;80.99
18749;BME280;9503;53.560;10.246;2023-04-06T04:25:00;101275.44;;;4.03;81.39
18749;BME280;9503;53.560;10.246;2023-04-06T04:27:27;101277.06;;;4.33;80.67
18749;BME280;9503;53.560;10.246;2023-04-06T04:29:54;101275.53;;;4.35;79.86
18749;BME280;9503;53.560;10.246;2023-04-06T04:32:22;101276.72;;;4.08;80.67
18749;BME280;9503;53.560;10.246;2023-04-06T04:34:52;101285.59;;;4.13;82.08
18749;BME280;9503;53.560;10.246;2023-04-06T04:37:19;101284.31;;;4.28;81.82
18749;BME280;9503;53.560;10.246;2023-04-06T04:39:46;101283.78;;;4.32;81.51
18749;BME280;9503;53.560;10.246;2023-04-06T04:42:13;101277.19;;;4.34;82.07
18749;BME280;9503;53.560;10.246;2023-04-06T04:44:40;101283.78;;;4.42;80.83
18749;BME280;9503;53.560;10.246;2023-04-06T04:47:07;101275.03;;;4.49;80.18
18749;BME280;9503;53.560;10.246;2023-04-06T04:49:35;101282.59;;;4.59;80.08
18749;BME280;9503;53.560;10.246;2023-04-06T04:52:02;101280.97;;;4.39;79.51
18749;BME280;9503;53.560;10.246;2023-04-06T04:54:29;101281.50;;;4.35;80.71
18749;BME280;9503;53.560;10.246;2023-04-06T04:56:56;101281.75;;;4.38;80.98
18749;BME280;9503;53.560;10.246;2023-04-06T04:59:22;101276.06;;;4.41;80.41
18749;BME280;9503;53.560;10.246;2023-04-06T05:01:49;101279.47;;;4.41;80.86
18749;BME280;9503;53.560;10.246;2023-04-06T05:04:16;101278.94;;;4.46;81.10
18749;BME280;9503;53.560;10.246;2023-04-06T05:06:44;101282.50;;;4.48;80.22
18749;BME280;9503;53.560;10.246;2023-04-06T05:09:11;101288.72;;;4.51;80.81
18749;BME280;9503;53.560;10.246;2023-04-06T05:11:37;101285.91;;;4.58;80.62
18749;BME280;9503;53.560;10.246;2023-04-06T05:14:04;101281.94;;;4.62;81.18
18749;BME280;9503;53.560;10.246;2023-04-06T05:16:32;101288.28;;;4.67;80.82
18749;BME280;9503;53.560;10.246;2023-04-06T05:18:58;101288.84;;;4.63;80.96
18749;BME280;9503;53.560;10.246;2023-04-06T05:21:25;101287.53;;;4.78;81.90
18749;BME280;9503;53.560;10.246;2023-04-06T05:23:54;101294.41;;;5.01;81.89
18749;BME280;9503;53.560;10.246;2023-04-06T05:26:21;101286.44;;;4.96;81.01
18749;BME280;9503;53.560;10.246;2023-04-06T05:28:48;101286.09;;;4.82;82.46
18749;BME280;9503;53.560;10.246;2023-04-06T05:31:15;101283.81;;;5.39;82.68
18749;BME280;9503;53.560;10.246;2023-04-06T05:33:41;101288.09;;;5.83;82.00
18749;BME280;9503;53.560;10.246;2023-04-06T05:36:08;101282.94;;;7.21;83.89
18749;BME280;9503;53.560;10.246;2023-04-06T05:38:35;101295.59;;;8.44;80.28
18749;BME280;9503;53.560;10.246;2023-04-06T05:41:03;101289.34;;;9.05;76.42
18749;BME280;9503;53.560;10.246;2023-04-06T05:43:30;101296.59;;;9.54;72.88
18749;BME280;9503;53.560;10.246;2023-04-06T05:45:57;101292.44;;;9.28;70.45
18749;BME280;9503;53.560;10.246;2023-04-06T05:48:24;101290.91;;;8.77;69.63
18749;BME280;9503;53.560;10.246;2023-04-06T05:50:51;101290.03;;;8.63;68.36
18749;BME280;9503;53.560;10.246;2023-04-06T05:53:18;101293.03;;;8.06;70.75
18749;BME280;9503;53.560;10.246;2023-04-06T05:55:46;101290.94;;;7.87;70.80
18749;BME280;9503;53.560;10.246;2023-04-06T05:58:14;101293.53;;;8.14;69.71
18749;BME280;9503;53.560;10.246;2023-04-06T06:00:42;101288.22;;;8.36;70.79
18749;BME280;9503;53.560;10.246;2023-04-06T06:03:11;101282.66;;;8.81;69.83
18749;BME280;9503;53.560;10.246;2023-04-06T06:05:38;101295.00;;;9.84;64.57
18749;BME280;9503;53.560;10.246;2023-04-06T06:08:05;101288.31;;;9.58;63.82
18749;BME280;9503;53.560;10.246;2023-04-06T06:10:31;101294.75;;;8.97;64.87
18749;BME280;9503;53.560;10.246;2023-04-06T06:12:58;101293.19;;;8.99;65.72
18749;BME280;9503;53.560;10.246;2023-04-06T06:15:26;101293.63;;;9.61;68.02
18749;BME280;9503;53.560;10.246;2023-04-06T06:17:53;101299.53;;;10.45;65.82
18749;BME280;9503;53.560;10.246;2023-04-06T06:20:20;101295.72;;;12.10;59.50
18749;BME280;9503;53.560;10.246;2023-04-06T06:22:46;101286.88;;;13.46;55.88
18749;BME280;9503;53.560;10.246;2023-04-06T06:25:13;101298.91;;;14.04;53.68
18749;BME280;9503;53.560;10.246;2023-04-06T06:27:41;101294.09;;;15.17;50.81
18749;BME280;9503;53.560;10.246;2023-04-06T06:30:08;101297.31;;;16.28;49.47
18749;BME280;9503;53.560;10.246;2023-04-06T06:32:37;101297.47;;;16.33;46.80
18749;BME280;9503;53.560;10.246;2023-04-06T06:35:04;101302.34;;;17.60;44.97
18749;BME280;9503;53.560;10.246;2023-04-06T06:37:31;101305.03;;;17.33;44.06
18749;BME280;9503;53.560;10.246;2023-04-06T06:39:57;101302.56;;;17.09;43.77
18749;BME280;9503;53.560;10.246;2023-04-06T06:42:24;101310.88;;;15.97;45.41
18749;BME280;9503;53.560;10.246;2023-04-06T06:44:51;101307.72;;;15.13;46.45
18749;BME280;9503;53.560;10.246;2023-04-06T06:47:18;101302.25;;;14.62;47.60
18749;BME280;9503;53.560;10.246;2023-04-06T06:49:46;101304.91;;;13.66;48.73
18749;BME280;9503;53.560;10.246;2023-04-06T06:52:12;101295.84;;;13.54;49.92
18749;BME280;9503;53.560;10.246;2023-04-06T06:54:39;101297.75;;;13.78;49.99
18749;BME280;9503;53.560;10.246;2023-04-06T06:57:06;101297.56;;;13.18;49.30
18749;BME280;9503;53.560;10.246;2023-04-06T06:59:33;101305.09;;;13.88;48.95
18749;BME280;9503;53.560;10.246;2023-04-06T07:02:00;101300.66;;;14.05;48.07
18749;BME280;9503;53.560;10.246;2023-04-06T07:04:27;101297.34;;;14.48;47.91
18749;BME280;9503;53.560;10.246;2023-04-06T07:06:55;101293.34;;;14.35;48.08
18749;BME280;9503;53.560;10.246;2023-04-06T07:09:21;101288.53;;;15.07;46.79
18749;BME280;9503;53.560;10.246;2023-04-06T07:11:48;101295.56;;;14.68;46.08
18749;BME280;9503;53.560;10.246;2023-04-06T07:14:15;101299.59;;;14.61;47.17
18749;BME280;9503;53.560;10.246;2023-04-06T07:16:42;101303.38;;;14.69;46.85
18749;BME280;9503;53.560;10.246;2023-04-06T07:19:10;101295.22;;;15.02;46.81
18749;BME280;9503;53.560;10.246;2023-04-06T07:21:37;101295.50;;;14.87;45.80
18749;BME280;9503;53.560;10.246;2023-04-06T07:24:05;101293.63;;;15.50;45.41
18749;BME280;9503;53.560;10.246;2023-04-06T07:26:32;101292.94;;;15.32;44.95
18749;BME280;9503;53.560;10.246;2023-04-06T07:28:59;101286.56;;;14.79;45.55
18749;BME280;9503;53.560;10.246;2023-04-06T07:31:26;101281.88;;;12.94;48.53
18749;BME280;9503;53.560;10.246;2023-04-06T07:33:52;101286.47;;;13.19;48.38
18749;BME280;9503;53.560;10.246;2023-04-06T07:36:19;101288.44;;;12.36;50.15
18749;BME280;9503;53.560;10.246;2023-04-06T07:38:46;101283.16;;;13.40;49.21
18749;BME280;9503;53.560;10.246;2023-04-06T07:41:15;101287.59;;;14.02;47.85
18749;BME280;9503;53.560;10.246;2023-04-06T07:43:42;101282.50;;;14.63;47.13
18749;BME280;9503;53.560;10.246;2023-04-06T07:46:09;101277.81;;;15.20;45.65
18749;BME280;9503;53.560;10.246;2023-04-06T07:48:36;101283.88;;;14.98;45.45
18749;BME280;9503;53.560;10.246;2023-04-06T07:51:03;101281.44;;;14.80;45.17
18749;BME280;9503;53.560;10.246;2023-04-06T07:53:31;101282.31;;;15.02;45.26
18749;BME280;9503;53.560;10.246;2023-04-06T07:55:58;101279.88;;;15.73;44.11
18749;BME280;9503;53.560;10.246;2023-04-06T07:58:26;101282.41;;;15.27;44.04
18749;BME280;9503;53.560;10.246;2023-04-06T08:00:53;101276.78;;;15.15;43.96
18749;BME280;9503;53.560;10.246;2023-04-06T08:03:20;101280.47;;;15.44;44.28
18749;BME280;9503;53.560;10.246;2023-04-06T08:05:50;101277.88;;;14.77;44.83
18749;BME280;9503;53.560;10.246;2023-04-06T08:08:17;101271.06;;;15.46;44.40
18749;BME280;9503;53.560;10.246;2023-04-06T08:10:44;101275.94;;;16.34;43.60
18749;BME280;9503;53.560;10.246;2023-04-06T08:13:11;101271.81;;;16.66;42.09
18749;BME280;9503;53.560;10.246;2023-04-06T08:15:39;101271.88;;;16.42;42.81
18749;BME280;9503;53.560;10.246;2023-04-06T08:18:06;101274.16;;;16.84;42.24
18749;BME280;9503;53.560;10.246;2023-04-06T08:20:33;101274.06;;;16.55;41.92
18749;BME280;9503;53.560;10.246;2023-04-06T08:22:59;101282.41;;;16.21;42.34
18749;BME280;9503;53.560;10.246;2023-04-06T08:25:26;101268.38;;;16.40;42.29
18749;BME280;9503;53.560;10.246;2023-04-06T08:27:53;101273.75;;;15.71;42.13
18749;BME280;9503;53.560;10.246;2023-04-06T08:30:20;101273.66;;;15.24;43.40
18749;BME280;9503;53.560;10.246;2023-04-06T08:32:48;101274.19;;;15.84;43.25
18749;BME280;9503;53.560;10.246;2023-04-06T08:35:15;101271.97;;;16.18;42.65
18749;BME280;9503;53.560;10.246;2023-04-06T08:37:42;101263.72;;;16.30;41.77
18749;BME280;9503;53.560;10.246;2023-04-06T08:40:09;101266.97;;;16.75;40.94
18749;BME280;9503;53.560;10.246;2023-04-06T08:42:39;101260.44;;;16.88;40.76
18749;BME280;9503;53.560;10.246;2023-04-06T08:45:08;101268.50;;;17.26;41.00
18749;BME280;9503;53.560;10.246;2023-04-06T08:47:36;101258.94;;;16.68;41.58
18749;BME280;9503;53.560;10.246;2023-04-06T08:50:05;101257.88;;;16.36;41.79
18749;BME280;9503;53.560;10.246;2023-04-06T08:52:32;101268.66;;;15.73;42.99
18749;BME280;9503;53.560;10.246;2023-04-06T08:54:59;101259.63;;;14.95;41.26
18749;BME280;9503;53.560;10.246;2023-04-06T08:57:26;101264.50;;;14.87;41.94
18749;BME280;9503;53.560;10.246;2023-04-06T08:59:54;101264.06;;;14.34;42.27
18749;BME280;9503;53.560;10.246;2023-04-06T09:02:21;101266.13;;;14.62;42.32
18749;BME280;9503;53.560;10.246;2023-04-06T09:04:49;101263.97;;;15.18;41.97
18749;BME280;9503;53.560;10.246;2023-04-06T09:07:20;101259.53;;;14.48;42.70
18749;BME280;9503;53.560;10.246;2023-04-06T09:09:47;101264.81;;;14.11;42.96
18749;BME280;9503;53.560;10.246;2023-04-06T09:12:22;101254.00;;;14.20;43.26
18749;BME280;9503;53.560;10.246;2023-04-06T09:14:49;101249.88;;;14.65;42.91
18749;BME280;9503;53.560;10.246;2023-04-06T09:17:20;101249.81;;;14.63;42.07
18749;BME280;9503;53.560;10.246;2023-04-06T09:19:47;101239.47;;;15.07;42.23
18749;BME280;9503;53.560;10.246;2023-04-06T09:22:14;101251.19;;;15.21;41.88
18749;BME280;9503;53.560;10.246;2023-04-06T09:24:44;101253.25;;;15.54;40.54
18749;BME280;9503;53.560;10.246;2023-04-06T09:27:11;101248.41;;;15.39;39.21
18749;BME280;9503;53.560;10.246;2023-04-06T09:29:38;101248.78;;;15.49;38.71
18749;BME280;9503;53.560;10.246;2023-04-06T09:32:05;101250.44;;;15.47;39.15
18749;BME280;9503;53.560;10.246;2023-04-06T09:34:33;101239.44;;;15.29;39.17
18749;BME280;9503;53.560;10.246;2023-04-06T09:36:59;101240.59;;;15.13;39.14
18749;BME280;9503;53.560;10.246;2023-04-06T09:39:26;101238.75;;;15.57;39.11
18749;BME280;9503;53.560;10.246;2023-04-06T09:41:54;101232.78;;;16.08;39.51
18749;BME280;9503;53.560;10.246;2023-04-06T09:44:21;101241.00;;;15.96;39.31
18749;BME280;9503;53.560;10.246;2023-04-06T09:46:53;101223.84;;;16.50;38.93
18749;BME280;9503;53.560;10.246;2023-04-06T09:49:21;101228.31;;;15.78;39.80
18749;BME280;9503;53.560;10.246;2023-04-06T09:51:53;101233.28;;;16.23;38.74
18749;BME280;9503;53.560;10.246;2023-04-06T09:54:22;101226.84;;;16.10;39.28
18749;BME280;9503;53.560;10.246;2023-04-06T09:56:51;101231.84;;;16.83;39.44
18749;BME280;9503;53.560;10.246;2023-04-06T09:59:24;101228.53;;;16.89;38.75
18749;BME280;9503;53.560;10.246;2023-04-06T10:01:53;101223.34;;;16.62;37.97
18749;BME280;9503;53.560;10.246;2023-04-06T10:04:36;101223.47;;;17.52;37.23
18749;BME280;9503;53.560;10.246;2023-04-06T10:07:04;101220.41;;;17.05;37.04
18749;BME280;9503;53.560;10.246;2023-04-06T10:09:35;101213.94;;;16.91;36.29
18749;BME280;9503;53.560;10.246;2023-04-06T10:12:04;101217.91;;;17.38;36.65
18749;BME280;9503;53.560;10.246;2023-04-06T10:14:33;101211.97;;;17.12;35.89
18749;BME280;9503;53.560;10.246;2023-04-06T10:17:02;101213.06;;;17.82;35.74
18749;BME280;9503;53.560;10.246;2023-04-06T10:19:34;101214.38;;;17.68;35.82
18749;BME280;9503;53.560;10.246;2023-04-06T10:22:03;101211.06;;;18.05;35.56
18749;BME280;9503;53.560;10.246;2023-04-06T10:24:31;101212.28;;;18.54;35.60
18749;BME280;9503;53.560;10.246;2023-04-06T10:26:59;101214.69;;;18.12;35.02
18749;BME280;9503;53.560;10.246;2023-04-06T10:29:27;101210.16;;;17.70;35.78
18749;BME280;9503;53.560;10.246;2023-04-06T10:31:55;101215.75;;;18.18;35.50
18749;BME280;9503;53.560;10.246;2023-04-06T10:34:22;101218.91;;;18.07;36.00
18749;BME280;9503;53.560;10.246;2023-04-06T10:36:49;101218.16;;;17.78;35.63
18749;BME280;9503;53.560;10.246;2023-04-06T10:39:24;101215.03;;;18.60;35.31
18749;BME280;9503;53.560;10.246;2023-04-06T10:41:51;101211.69;;;17.95;35.37
18749;BME280;9503;53.560;10.246;2023-04-06T10:44:20;101208.78;;;18.52;34.87
18749;BME280;9503;53.560;10.246;2023-04-06T10:46:52;101204.13;;;18.39;34.67
18749;BME280;9503;53.560;10.246;2023-04-06T10:49:21;101210.22;;;18.41;34.73
18749;BME280;9503;53.560;10.246;2023-04-06T10:51:51;101205.56;;;18.28;34.90
18749;BME280;9503;53.560;10.246;2023-04-06T10:54:21;101206.34;;;17.57;35.15
18749;BME280;9503;53.560;10.246;2023-04-06T10:56:49;101205.22;;;17.79;35.35
18749;BME280;9503;53.560;10.246;2023-04-06T10:59:19;101204.75;;;17.32;35.37
18749;BME280;9503;53.560;10.246;2023-04-06T11:01:46;101194.13;;;18.19;35.25
18749;BME280;9503;53.560;10.246;2023-04-06T11:04:16;101197.91;;;18.32;35.15
18749;BME280;9503;53.560;10.246;2023-04-06T11:06:48;101201.69;;;18.10;35.35
18749;BME280;9503;53.560;10.246;2023-04-06T11:09:23;101197.94;;;18.70;35.36
18749;BME280;9503;53.560;10.246;2023-04-06T11:11:51;101199.44;;;18.98;35.07
18749;BME280;9503;53.560;10.246;2023-04-06T11:14:18;101191.84;;;19.09;34.62
18749;BME280;9503;53.560;10.246;2023-04-06T11:16:46;101193.38;;;18.97;34.28
18749;BME280;9503;53.560;10.246;2023-04-06T11:19:13;101186.25;;;19.31;33.96
18749;BME280;9503;53.560;10.246;2023-04-06T11:21:42;101179.22;;;18.85;34.49
18749;BME280;9503;53.560;10.246;2023-04-06T11:24:14;101180.84;;;18.43;35.43
18749;BME280;9503;53.560;10.246;2023-04-06T11:26:43;101177.25;;;18.73;35.39
18749;BME280;9503;53.560;10.246;2023-04-06T11:29:11;101180.13;;;19.27;35.09
18749;BME280;9503;53.560;10.246;2023-04-06T11:31:42;101170.56;;;19.26;34.19
18749;BME280;9503;53.560;10.246;2023-04-06T11:34:10;101170.44;;;19.64;34.67
18749;BME280;9503;53.560;10.246;2023-04-06T11:36:40;101171.50;;;18.50;35.40
18749;BME280;9503;53.560;10.246;2023-04-06T11:39:08;101165.28;;;19.22;35.29
18749;BME280;9503;53.560;10.246;2023-04-06T11:41:36;101166.00;;;19.57;34.80
18749;BME280;9503;53.560;10.246;2023-04-06T11:44:03;101167.47;;;19.46;34.96
18749;BME280;9503;53.560;10.246;2023-04-06T11:46:31;101168.53;;;19.12;35.19
18749;BME280;9503;53.560;10.246;2023-04-06T11:48:58;101163.84;;;18.56;35.96
18749;BME280;9503;53.560;10.246;2023-04-06T11:51:26;101175.59;;;19.17;35.20
18749;BME280;9503;53.560;10.246;2023-04-06T11:53:53;101165.28;;;19.23;34.71
18749;BME280;9503;53.560;10.246;2023-04-06T11:56:24;101161.94;;;19.73;34.47
18749;BME280;9503;53.560;10.246;2023-04-06T11:58:54;101164.31;;;20.10;34.34
18749;BME280;9503;53.560;10.246;2023-04-06T12:01:21;101159.56;;;19.40;34.30
18749;BME280;9503;53.560;10.246;2023-04-06T12:03:48;101158.94;;;19.09;34.84
18749;BME280;9503;53.560;10.246;2023-04-06T12:06:15;101154.41;;;19.90;34.64
18749;BME280;9503;53.560;10.246;2023-04-06T12:08:41;101148.75;;;19.62;34.48
18749;BME280;9503;53.560;10.246;2023-04-06T12:11:08;101158.34;;;20.18;34.32
18749;BME280;9503;53.560;10.246;2023-04-06T12:13:35;101157.59;;;19.72;34.54
18749;BME280;9503;53.560;10.246;2023-04-06T12:16:03;101153.81;;;19.11;34.88
18749;BME280;9503;53.560;10.246;2023-04-06T12:18:31;101158.88;;;19.50;35.19
18749;BME280;9503;53.560;10.246;2023-04-06T12:20:58;101152.28;;;19.23;34.75
18749;BME280;9503;53.560;10.246;2023-04-06T12:23:25;101148.56;;;20.04;34.77
18749;BME280;9503;53.560;10.246;2023-04-06T12:25:52;101152.84;;;20.54;33.52
18749;BME280;9503;53.560;10.246;2023-04-06T12:28:20;101150.31;;;20.04;34.03
18749;BME280;9503;53.560;10.246;2023-04-06T12:30:48;101150.72;;;20.30;33.98
18749;BME280;9503;53.560;10.246;2023-04-06T12:33:16;101146.94;;;19.58;34.28
18749;BME280;9503;53.560;10.246;2023-04-06T12:35:43;101145.44;;;20.25;33.77
18749;BME280;9503;53.560;10.246;2023-04-06T12:38:10;101140.97;;;20.17;34.00
18749;BME280;9503;53.560;10.246;2023-04-06T12:40:37;101143.88;;;20.35;34.13
18749;BME280;9503;53.560;10.246;2023-04-06T12:43:05;101144.63;;;19.75;34.36
18749;BME280;9503;53.560;10.246;2023-04-06T12:45:31;101134.09;;;19.23;34.59
18749;BME280;9503;53.560;10.246;2023-04-06T12:47:58;101140.59;;;19.92;34.08
18749;BME280;9503;53.560;10.246;2023-04-06T12:50:26;101134.81;;;20.11;33.98
18749;BME280;9503;53.560;10.246;2023-04-06T12:52:53;101136.06;;;19.35;35.36
18749;BME280;9503;53.560;10.246;2023-04-06T12:55:20;101139.78;;;19.96;34.35
18749;BME280;9503;53.560;10.246;2023-04-06T12:57:47;101144.06;;;20.47;33.53